Ride Results

Far-A-Way Monday (28-03-2005)
Ride distance: 84.0 km

Outcomes - Far-A-Way Monday (28-03-2005)
Division No. of Entries Retired / DNE Completed Withdrawn Ineligible V/O Percentage Completed
HW 12 - 10 1 - 1 83.33%
MW 29 - 27 - - 2 93.10%
LW 11 - 10 - - 1 90.91%
JN 7 - 6 1 - - 85.71%
Totals 59 - 53 2 - 4 89.83%
Results - Far-A-Way Monday (28-03-2005)
No. Rider Horse Place Time Leg Speeds Total
Km/Hr
H/R bpm
Heavyweight
117 Derek Armitage Meltharina Mirage 1 5:05:00 16.8, 16.1 16.52 35, 41, 54 (Avg:47)
120 David Horton Eskdale Espirique 2 5:37:00 16.9, 13.1 14.96 31, 48, 56 (Avg:52)
138 Russell Rainbird Poroti Levi 3 6:18:00 14.5, 12.1 13.33 35, 46, 54 (Avg:50)
131 Alwyn Torenbeek Queensland Mudmaps 4 7:07:00 12.3, 11.2 11.80 42, 44, 56 (Avg:50)
127 Elizabeth Paton Rafyke 5 7:33:00 11.6, 10.5 11.13 38, 47, 59 (Avg:53)
147 Arch Felton Bint Shah Dara 6 8:09:00 11.1, 9.4 10.31 38, 48, 60 (Avg:54)
112 Neil Boardman Norben Park Rebekah's Boy 7 8:12:00 11.5, 8.9 10.24 39, 44, 52 (Avg:48)
143 Rhonda Pedracini Bullarto Casals 8 8:16:00 10.7, 9.5 10.16 52, 55, 55 (Avg:55)
129 Adrian Hope-Hodgetts Agecroft Israel 9 8:18:00 10.9, 9.3 10.12 48, 44, 51 (Avg:47)
166 Craig Ellison Rowallan Dark Lad 10 8:49:00 11.0, 8.1 9.53 43, 48, 49 (Avg:48)
126 Glen Seib Our Allegiance Lame L2 0:00:00 13.3, 11.1 - 30, 41, 60 (Avg:50)
134 Niels Lochtenberg Matta Mia Ademi Withdrawn L1 0:00:00 - - 40, 45 (Avg:45)
Middleweight
118 Charmaine Bond El Sarem Zanita 1 5:05:00 16.8, 16.1 16.52 32, 40, 56 (Avg:48)
137 Ken Moir El Estande 1 5:05:00 16.9, 16.0 16.52 35, 45, 43 (Avg:44)
145 Daniele O'Loughlin Pravado 1 5:05:00 16.9, 16.0 16.52 36, 41, 48 (Avg:44)
111 Kerrie McAuliffe Gurangada Sundance 4 5:37:00 16.8, 13.1 14.96 26, 36, 55 (Avg:45)
155 Raymond Griffiths Castlebar Truman 5 6:20:00 14.0, 12.3 13.26 37, 42, 51 (Avg:46)
125 Louise Mackey Dmar Raining Gold 6 6:42:00 13.4, 11.5 12.54 44, 53, 57 (Avg:55)
160 Brook Sample Mylex Sultan 7 6:58:00 12.5, 11.5 12.06 38, 45, 41 (Avg:43)
169 Yukio Yanadae Double Royal 7 6:58:00 12.5, 11.5 12.06 33, 46, 47 (Avg:46)
144 Sally Genninges Lord Kan 9 7:00:00 14.0, 10.2 12.00 29, 48, 50 (Avg:49)
159 Jaimee Foulsham Chevrolet 10 7:03:00 12.6, 11.1 11.91 32, 42, 57 (Avg:49)
146 Sandra Isenmann Sasam 10 7:03:00 13.4, 10.4 11.91 30, 48, 51 (Avg:49)
123 Jill Colwell Algalahn 12 7:09:00 12.1, 11.2 11.75 33, 45, 52 (Avg:48)
121 Jennifer Gilbertson Highland View Albar 12 7:09:00 12.1, 11.2 11.75 32, 45, 51 (Avg:48)
119 Penny Toft Blue Bronco 12 7:09:00 11.9, 11.5 11.75 30, 45, 53 (Avg:49)
139 Belinda Quirk Dmar Dancing Diplomat 15 7:12:00 13.7, 9.8 11.67 50, 47, 47 (Avg:47)
114 Robyn Pembroke Mt Eerwah Silver Arafina 16 7:28:00 13.4, 9.3 11.25 27, 36, 51 (Avg:43)
133 Robert Sutton Tottenham Park Etosha 17 7:33:00 9.2, 14.6 11.13 44, 44, 53 (Avg:48)
157 Louis Botha Sharahd Bassa 18 7:35:00 11.2, 10.9 11.08 41, 48, 50 (Avg:49)
153 Elsie Newsome Zambucca 19 7:44:00 11.6, 10.0 10.86 33, 42, 45 (Avg:43)
150 Jodie Salinas Bartimaeus 19 7:44:00 11.6, 10.0 10.86 37, 40, 52 (Avg:46)
116 Bridget Nottle Splendacrest Sayirah 21 8:16:00 10.7, 9.4 10.16 37, 42, 46 (Avg:44)
141 Shigeru Ogawa Splendacrest Narayen 21 8:16:00 10.7, 9.5 10.16 36, 42, 49 (Avg:45)
136 Raewyn Carter My Sweet Lord 23 8:29:00 10.6, 9.1 9.90 34, 43, 45 (Avg:44)
135 Paul Rogerson Die Kinder Lunar Eclipse 23 8:29:00 10.6, 9.1 9.90 37, 44, 59 (Avg:51)
162 Ashlee Shafer Shanadaar El Ahshan 25 8:45:00 10.9, 8.3 9.60 40, 43, 46 (Avg:44)
128 Julie Bartulis Cameo Co-Star 26 8:51:00 11.2, 7.9 9.49 36, 48, 56 (Avg:52)
142 Jaime Mansbridge Shannonwood Bree 26 8:51:00 11.2, 7.9 9.49 44, 49, 51 (Avg:50)
165 Peter Birch Hillbrae May Heart Rate L2 0:00:00 13.3, 11.1 - 34, 37, 62 (Avg:49)
164 Sandra Birch Hillbrae Riley Heart Rate L2 0:00:00 13.3, 11.1 - 35, 43, 71 (Avg:57)
Lightweight
132 Kylie Beard Careb Park Bently 1 5:46:00 14.5, 14.6 14.57 34, 52, 51 (Avg:51)
148 Deborar Leah Gale Double Jeopardy 2 6:20:00 14.0, 12.3 13.26 40, 46, 56 (Avg:51)
140 Jan Rainbird Roobuk Tahlara 3 6:43:00 13.2, 11.7 12.51 34, 41, 56 (Avg:48)
156 Jeremy Robertson Kitt 4 7:03:00 12.6, 11.1 11.91 41, 46, 45 (Avg:45)
115 Sasha Laws-King Tubbarubba Cheval 5 7:17:00 12.2, 10.8 11.53 39, 55, 58 (Avg:56)
113 Chelsea Moore Mt Eerwah Moonshadow 6 7:28:00 13.4, 9.3 11.25 27, 40, 49 (Avg:44)
168 Miki Field Shah-Vale Shamal 7 7:56:00 10.8, 10.3 10.59 37, 40, 50 (Avg:45)
154 Dianne Luker Rusty Libra 8 8:07:00 11.0, 9.5 10.35 40, 44, 48 (Avg:46)
161 Kaylea Maher Uvinia Blue Son 9 8:45:00 10.9, 8.3 9.60 37, 53, 52 (Avg:52)
152 Bec Miller Ennerdale Omar 10 8:49:00 11.0, 8.1 9.53 38, 47, 42 (Avg:44)
110 Angela Hawks Crysari Heart Rate L2 0:00:00 13.5, 11.8 - 33, 45, 66 (Avg:55)
Junior
149 Tasha Jeremy Nazelle 1 6:14:00 14.7, 12.1 13.48 34, 38, 42 (Avg:40)
122 Brooke Warner Roheryn Bold Impression 2 7:03:00 12.6, 11.1 11.91 41, 45, 42 (Avg:43)
151 Jasmine Shields Mithras Eric 3 7:44:00 11.6, 10.0 10.86 28, 39, 47 (Avg:43)
163 Saasha Grogan A Touch Of Frost 4 7:56:00 10.8, 10.3 10.59 40, 42, 43 (Avg:42)
167 Georgia Zischke Esau 5 8:04:00 11.9, 9.0 10.41 43, 52, 52 (Avg:52)
130 Kelsey Irvine Rose Robin 6 8:10:00 10.6, 9.8 10.29 48, 45, 49 (Avg:47)
124 Laura Finlayson Bullarto Fiorelli Withdrawn L1 0:00:00 - - 42, 48 (Avg:48)